This is the latest recevied weather packets stored in our database for station/object WX7FGZ-3. If no packets are shown the sender has not sent any weather packets the latest 1 day(s).
| Time | Temp. | Humidity | Pressure | Rain* | Wind** | Luminosity | Snow |
|---|---|---|---|---|---|---|---|
| 1778027172 | 8.89° C | 50% | 1004.8 hPa | 0 mm | - | - | - |
| 1778026572 | 8.89° C | 52% | 1004.7 hPa | 0 mm | - | - | - |
| 1778022668 | 12.22° C | 48% | 1003.1 hPa | 0 mm | - | - | - |
| 1778022368 | 12.22° C | 50% | 1002.9 hPa | 0 mm | - | - | - |
| 1778022068 | 12.22° C | 49% | 1002.9 hPa | 0 mm | - | - | - |
| 1778021467 | 12.78° C | 46% | 1003 hPa | 0 mm | - | - | - |
| 1778020867 | 12.78° C | 48% | 1003.1 hPa | 0 mm | - | - | - |
| 1778019365 | 11.67° C | 54% | 1003.2 hPa | 0 mm | - | - | - |
| 1778014861 | 12.22° C | 44% | 1004.1 hPa | 0 mm | - | - | - |
| 1778013960 | 11.11° C | 52% | 1004.8 hPa | 0 mm | - | - | - |
| 1778012158 | 11.67° C | 50% | 1004.6 hPa | 0 mm | - | - | - |
| 1778010957 | 11.11° C | 53% | 1004.3 hPa | 0 mm | - | - | - |
| 1778006453 | 12.22° C | 42% | 1005.1 hPa | 0 mm | - | - | - |
| 1778004951 | 11.67° C | 43% | 1005.4 hPa | 0 mm | - | - | - |
| 1778002549 | 10° C | 51% | 1005.8 hPa | 0 mm | - | - | - |
| 1778001348 | 9.44° C | 52% | 1005.7 hPa | 0 mm | - | - | - |
| 1778000747 | 9.44° C | 53% | 1005.7 hPa | 0 mm | - | - | - |
| 1777999546 | 10° C | 51% | 1005.6 hPa | 0 mm | - | - | - |
| 1777999246 | 10° C | 53% | 1005.6 hPa | 0 mm | - | - | - |
| 1777998946 | 9.44° C | 54% | 1005.6 hPa | 0 mm | - | - | - |
| 1777998345 | 9.44° C | 53% | 1005.8 hPa | 0 mm | - | - | - |
| 1777998045 | 8.89° C | 54% | 1005.7 hPa | 0 mm | - | - | - |
* Rain latest hour (hover to see other rain measurements)
** Current wind speed in m/s (hover to see current wind gust speed)